Terminal Aerodrome Forecast
Issued by NWS King Salmon, AK

Home | Current Version | Previous Version | Text Only | Print | Product List | Glossary On
Versions: 1 2 3 4 5 6 7 8 9 10 11 12 13 14 15
000
FTAK31 PANC 201910 AAA
TAFAKN
TAF AMD
PAKN 201910Z 2019/2118 22008KT P6SM VCSH FEW005 SCT035 BKN070
      TEMPO 2019/2021 BKN005
     FM210100 29007KT P6SM SCT060
     FM210300 34010KT P6SM BKN025
     FM210900 34008KT P6SM SCT030=

USA.gov is the U.S. government's official web portal to all federal, state and local government web resources and services.